Time;durP1;ratioP1;P1;durP2;ratioP2;P2;SDS_P1;SDS_P2;PMS_P1;PMS_P2;Temp;Humidity;BMP_temperature;BMP_pressure;BME280_temperature;BME280_humidity;BME280_pressure;Samples;Min_cycle;Max_cycle;Signal;HPM_P1;HPM_P2
2022/09/05 00:02:01;;;;;;;;;2.50;2.50;;;;;25.85;35.58;101136.94;4961160;28;45331;-64
2022/09/05 00:04:33;;;;;;;;;1.00;1.00;;;;;25.85;35.66;101147.69;4960875;28;45292;-65
2022/09/05 00:07:12;;;;;;;;;3.00;3.00;;;;;25.77;36.01;101161.72;4961025;28;46101;-66
2022/09/05 00:09:54;;;;;;;;;4.00;2.00;;;;;25.78;36.13;101165.25;4960998;28;45237;-65
2022/09/05 00:12:21;;;;;;;;;1.00;1.00;;;;;25.75;35.98;101176.25;4960768;28;45322;-65
2022/09/05 00:15:09;;;;;;;;;2.00;2.00;;;;;25.71;35.80;101163.97;4960680;28;45272;-66
2022/09/05 00:18:03;;;;;;;;;2.00;2.00;;;;;25.66;36.07;101160.75;4961763;28;45458;-65
2022/09/05 00:20:53;;;;;;;;;4.00;3.00;;;;;25.62;35.85;101154.72;4964003;28;45381;-65
2022/09/05 00:23:44;;;;;;;;;2.75;2.75;;;;;25.57;35.88;101146.13;4946878;28;45494;-65
2022/09/05 00:26:44;;;;;;;;;2.75;0.25;;;;;25.55;35.38;101145.41;4964283;28;45259;-65
2022/09/05 00:29:24;;;;;;;;;3.00;3.00;;;;;25.53;35.84;101136.56;4964138;28;46345;-65
2022/09/05 00:32:19;;;;;;;;;4.25;2.75;;;;;25.49;36.00;101127.84;4963994;28;45286;-65
2022/09/05 00:35:09;;;;;;;;;4.25;4.25;;;;;25.46;35.69;101130.78;4958537;28;45335;-66
2022/09/05 00:37:42;;;;;;;;;3.00;3.00;;;;;25.45;35.98;101131.72;4947098;28;45296;-65
2022/09/05 00:40:24;;;;;;;;;3.75;3.75;;;;;25.43;36.14;101129.16;4963823;28;46215;-65
2022/09/05 00:43:05;;;;;;;;;2.75;2.75;;;;;25.41;36.02;101132.94;4963932;28;45379;-65
2022/09/05 00:45:38;;;;;;;;;3.25;3.25;;;;;25.37;36.13;101121.53;4946336;28;45339;-65
2022/09/05 00:48:28;;;;;;;;;4.25;3.00;;;;;25.34;35.80;101110.94;4963766;28;45276;-65
2022/09/05 00:51:00;;;;;;;;;4.50;4.00;;;;;25.31;36.09;101114.69;4974495;28;46189;-65
2022/09/05 00:53:36;;;;;;;;;2.75;2.75;;;;;25.28;35.78;101109.56;4951705;28;45367;-65
2022/09/05 00:56:12;;;;;;;;;2.00;2.00;;;;;25.25;35.84;101112.44;4963626;28;45249;-65
2022/09/05 00:58:58;;;;;;;;;2.00;2.00;;;;;25.23;35.95;101100.06;4963806;28;45196;-65
2022/09/05 01:01:26;;;;;;;;;2.50;2.25;;;;;25.23;35.96;101097.38;4963591;28;46176;-65
2022/09/05 01:04:15;;;;;;;;;7.00;4.75;;;;;25.18;35.92;101089.63;4963488;28;45509;-65
2022/09/05 01:06:43;;;;;;;;;3.00;2.75;;;;;25.18;36.87;101083.41;4963835;28;45271;-65
2022/09/05 01:09:44;;;;;;;;;3.50;3.50;;;;;25.14;36.66;101080.06;4945627;28;45465;-65
2022/09/05 01:12:32;;;;;;;;;2.75;2.00;;;;;25.14;36.28;101077.38;4939258;28;45488;-65
2022/09/05 01:15:21;;;;;;;;;2.75;2.75;;;;;25.12;36.55;101077.50;4963258;28;45215;-65
2022/09/05 01:18:01;;;;;;;;;3.25;2.00;;;;;25.10;37.05;101075.88;4963705;28;45217;-65
2022/09/05 01:20:54;;;;;;;;;3.00;3.00;;;;;25.10;36.30;101076.75;4962169;28;45264;-65
2022/09/05 01:23:38;;;;;;;;;2.00;2.00;;;;;25.09;36.62;101083.09;4963309;28;45370;-65
2022/09/05 01:26:15;;;;;;;;;3.00;3.00;;;;;25.06;36.98;101091.38;4963338;28;45418;-65
2022/09/05 01:28:49;;;;;;;;;3.50;3.50;;;;;25.04;36.52;101103.19;4945500;28;45332;-65
2022/09/05 01:31:24;;;;;;;;;2.75;2.25;;;;;25.03;36.86;101101.47;4963117;28;45268;-65
2022/09/05 01:33:50;;;;;;;;;2.00;2.00;;;;;25.02;36.81;101099.75;4963437;28;46610;-65
2022/09/05 01:36:43;;;;;;;;;4.00;4.00;;;;;24.98;37.06;101110.72;4962991;28;45484;-65
2022/09/05 01:39:36;;;;;;;;;2.75;2.75;;;;;24.96;36.92;101131.47;4963353;28;45482;-65
2022/09/05 01:42:16;;;;;;;;;2.00;2.00;;;;;24.92;37.05;101159.53;4963023;28;45363;-65
2022/09/05 01:45:05;;;;;;;;;6.75;3.25;;;;;24.88;37.25;101173.28;4962406;28;46749;-65
2022/09/05 01:47:47;;;;;;;;;2.75;2.75;;;;;24.80;36.97;101173.78;4961828;28;45268;-65
2022/09/05 01:50:37;;;;;;;;;4.75;3.75;;;;;24.83;37.59;101160.16;4968433;28;45243;-66
2022/09/05 01:53:28;;;;;;;;;4.00;4.00;;;;;24.84;37.34;101156.50;4964597;28;45544;-65
2022/09/05 01:56:20;;;;;;;;;3.75;3.25;;;;;24.85;37.41;101158.22;4941774;28;45467;-65
2022/09/05 01:59:27;;;;;;;;;4.75;4.75;;;;;24.87;37.08;101134.78;4922380;28;45514;-65
2022/09/05 02:02:14;;;;;;;;;2.25;2.25;;;;;24.89;37.65;101134.69;4953415;28;45547;-65
2022/09/05 02:04:49;;;;;;;;;5.00;4.00;;;;;24.88;37.67;101117.72;4962778;28;45235;-65
2022/09/05 02:07:47;;;;;;;;;4.00;3.75;;;;;24.87;37.72;101090.91;4962522;28;45189;-65
2022/09/05 02:10:45;;;;;;;;;3.00;3.00;;;;;24.80;38.16;101090.50;4962618;28;45418;-65
2022/09/05 02:13:34;;;;;;;;;4.00;4.00;;;;;24.80;38.47;101103.94;4953625;28;45495;-65
2022/09/05 02:16:21;;;;;;;;;3.50;3.50;;;;;24.75;38.26;101101.53;4962467;28;45413;-65
2022/09/05 02:18:52;;;;;;;;;7.25;3.50;;;;;24.71;38.54;101101.88;4961556;28;45300;-64
2022/09/05 02:21:22;;;;;;;;;4.00;4.00;;;;;24.66;38.71;101112.94;4962520;28;45266;-64
2022/09/05 02:24:00;;;;;;;;;3.00;3.00;;;;;24.63;38.92;101110.44;4945096;28;45371;-64
2022/09/05 02:26:33;;;;;;;;;3.00;3.00;;;;;24.58;38.89;101118.81;4962396;28;45268;-64
2022/09/05 02:29:13;;;;;;;;;4.00;4.00;;;;;24.56;38.39;101112.66;4962313;28;46156;-64
2022/09/05 02:31:38;;;;;;;;;4.00;3.00;;;;;24.53;38.81;101115.56;4962071;28;45276;-65
2022/09/05 02:34:15;;;;;;;;;2.50;2.50;;;;;24.51;38.94;101122.84;4962377;28;45307;-65
2022/09/05 02:37:19;;;;;;;;;3.50;3.25;;;;;24.48;39.20;101120.38;4944642;28;45527;-65
2022/09/05 02:40:01;;;;;;;;;5.00;5.00;;;;;24.43;39.20;101118.00;4948417;28;46467;-64
2022/09/05 02:42:52;;;;;;;;;4.75;3.50;;;;;24.41;38.75;101119.91;4960910;28;45344;-64
2022/09/05 02:45:33;;;;;;;;;3.25;3.25;;;;;24.39;39.07;101112.94;4962075;28;45378;-64
2022/09/05 02:48:09;;;;;;;;;3.00;3.00;;;;;24.35;39.38;101117.63;4962033;28;45251;-65
2022/09/05 02:50:59;;;;;;;;;4.00;4.00;;;;;24.33;39.28;101115.06;4970371;28;45294;-65
2022/09/05 02:53:26;;;;;;;;;3.25;3.25;;;;;24.31;39.34;101118.81;4951271;28;45335;-65
2022/09/05 02:56:26;;;;;;;;;3.00;3.00;;;;;24.30;39.47;101122.47;4961844;28;45466;-64
2022/09/05 02:59:05;;;;;;;;;4.00;4.00;;;;;24.26;39.42;101105.69;4961983;28;45228;-64
2022/09/05 03:01:54;;;;;;;;;4.00;4.00;;;;;24.22;39.56;101112.22;4961720;28;45438;-64
2022/09/05 03:04:33;;;;;;;;;3.00;3.00;;;;;24.22;39.74;101114.91;4961600;28;45295;-65
2022/09/05 03:07:17;;;;;;;;;2.75;2.75;;;;;24.19;39.68;101112.44;4961861;28;45336;-64
2022/09/05 03:10:09;;;;;;;;;6.75;3.75;;;;;24.14;39.81;101117.25;4961631;28;45578;-64
2022/09/05 03:13:09;;;;;;;;;2.00;2.00;;;;;24.09;39.95;101122.06;4961359;28;45312;-64
2022/09/05 03:16:12;;;;;;;;;3.25;3.25;;;;;24.03;39.78;101120.63;4950805;28;45502;-64
2022/09/05 03:19:02;;;;;;;;;3.00;3.00;;;;;23.99;40.05;101121.81;4961773;28;45343;-64
2022/09/05 03:21:59;;;;;;;;;3.75;3.00;;;;;23.94;39.92;101121.25;4961691;28;45458;-64
2022/09/05 03:24:36;;;;;;;;;3.25;3.25;;;;;23.91;40.21;101126.75;4940985;28;46322;-64
2022/09/05 03:27:26;;;;;;;;;3.00;3.00;;;;;23.86;39.80;101119.00;4961439;28;45632;-64
2022/09/05 03:30:04;;;;;;;;;3.00;3.00;;;;;23.84;40.00;101120.94;4961305;28;45211;-64
2022/09/05 03:32:51;;;;;;;;;4.50;4.00;;;;;23.83;39.96;101127.25;4959821;28;45377;-64
2022/09/05 03:35:19;;;;;;;;;2.50;2.50;;;;;23.79;39.87;101133.78;4961129;28;46109;-64
2022/09/05 03:37:48;;;;;;;;;5.00;4.00;;;;;23.78;39.93;101137.44;4943489;28;45255;-64
2022/09/05 03:40:28;;;;;;;;;3.75;3.75;;;;;23.77;39.94;101135.69;4961466;28;45201;-64
2022/09/05 03:42:56;;;;;;;;;5.00;5.00;;;;;23.74;40.37;101135.91;4961114;28;45422;-64
2022/09/05 03:45:48;;;;;;;;;3.25;3.25;;;;;23.72;40.27;101137.81;4960806;28;46282;-64
2022/09/05 03:48:32;;;;;;;;;4.00;3.75;;;;;23.69;40.07;101131.66;4961101;28;45382;-64
2022/09/05 03:51:03;;;;;;;;;4.50;4.50;;;;;23.67;40.15;101128.25;4970399;28;45350;-64
2022/09/05 03:53:34;;;;;;;;;9.50;8.50;;;;;23.66;40.44;101131.00;4961254;28;45369;-64
2022/09/05 03:56:02;;;;;;;;;4.00;4.00;;;;;23.64;40.59;101125.75;4951503;28;47635;-64
2022/09/05 03:59:05;;;;;;;;;4.50;4.50;;;;;23.63;40.62;101128.53;4960989;28;45335;-64
2022/09/05 04:01:49;;;;;;;;;5.00;5.00;;;;;23.60;40.40;101123.38;4961107;28;45472;-64
2022/09/05 04:04:34;;;;;;;;;4.25;3.75;;;;;23.58;40.50;101122.59;4960831;28;45333;-64
2022/09/05 04:07:04;;;;;;;;;6.25;6.25;;;;;23.57;40.71;101119.06;4959213;28;47191;-65
2022/09/05 04:09:44;;;;;;;;;4.25;4.25;;;;;23.54;40.88;101127.28;4960826;28;45364;-65
2022/09/05 04:12:25;;;;;;;;;6.00;5.00;;;;;23.52;40.83;101122.03;4960890;28;45332;-64
2022/09/05 04:14:56;;;;;;;;;6.25;6.25;;;;;23.47;40.83;101118.78;4960690;28;45317;-65
2022/09/05 04:17:42;;;;;;;;;4.00;4.00;;;;;23.49;40.94;101124.03;4960654;28;45494;-65
2022/09/05 04:20:32;;;;;;;;;7.25;6.25;;;;;23.42;41.13;101126.25;4960663;28;45326;-65
2022/09/05 04:23:32;;;;;;;;;6.25;5.50;;;;;23.44;41.05;101136.88;4959761;28;45281;-65
2022/09/05 04:26:33;;;;;;;;;5.25;4.75;;;;;23.39;41.32;101142.50;4960797;28;45225;-65
2022/09/05 04:29:07;;;;;;;;;5.00;4.00;;;;;23.35;41.31;101139.16;4960429;28;45403;-65
2022/09/05 04:31:47;;;;;;;;;3.00;3.00;;;;;23.32;41.37;101139.34;4960400;28;45299;-65
2022/09/05 04:34:30;;;;;;;;;7.75;6.00;;;;;23.29;41.43;101155.63;4960853;28;45244;-65
2022/09/05 04:37:08;;;;;;;;;6.50;5.00;;;;;23.27;41.74;101153.97;4960503;28;45351;-64
2022/09/05 04:39:34;;;;;;;;;4.00;4.00;;;;;23.23;41.62;101155.13;4960317;28;45324;-65
2022/09/05 04:42:25;;;;;;;;;6.00;6.00;;;;;23.21;41.70;101165.97;4960505;28;45422;-65
2022/09/05 04:45:09;;;;;;;;;5.75;5.75;;;;;23.18;41.67;101158.09;4960120;28;45278;-65
2022/09/05 04:47:40;;;;;;;;;7.25;6.75;;;;;23.18;42.14;101158.09;4960474;28;45295;-65
2022/09/05 04:50:12;;;;;;;;;5.00;5.00;;;;;23.15;41.96;101169.84;4964567;28;45389;-65
2022/09/05 04:52:48;;;;;;;;;4.25;4.25;;;;;23.14;42.17;101168.09;4965786;28;45228;-65
2022/09/05 04:55:24;;;;;;;;;4.00;4.00;;;;;23.15;41.91;101179.69;4960522;28;45277;-65
2022/09/05 04:57:56;;;;;;;;;6.75;6.00;;;;;23.14;42.10;101180.66;4960209;28;45235;-64
2022/09/05 05:00:27;;;;;;;;;5.00;5.00;;;;;23.13;42.31;101189.63;4960072;28;46350;-64
2022/09/05 05:03:01;;;;;;;;;5.00;5.00;;;;;23.10;42.35;101176.44;4942706;28;45411;-65
2022/09/05 05:05:31;;;;;;;;;6.00;4.75;;;;;23.10;42.47;101177.28;4963635;28;45415;-65
2022/09/05 05:08:20;;;;;;;;;6.00;6.00;;;;;23.10;42.72;101176.44;4963602;28;45379;-64
2022/09/05 05:10:49;;;;;;;;;5.50;5.50;;;;;23.08;42.58;101181.91;4962740;28;46344;-65
2022/09/05 05:13:22;;;;;;;;;5.00;5.00;;;;;23.07;42.71;101181.97;4963386;28;45422;-64
2022/09/05 05:16:03;;;;;;;;;5.50;5.50;;;;;23.02;42.76;101182.25;4963273;28;45535;-64
2022/09/05 05:18:34;;;;;;;;;6.50;6.50;;;;;23.03;42.79;101183.97;4963147;28;45534;-66
2022/09/05 05:21:12;;;;;;;;;6.50;6.50;;;;;22.99;42.77;101183.31;4961590;28;45919;-66
2022/09/05 05:23:46;;;;;;;;;5.25;5.25;;;;;22.99;42.40;101191.34;4961952;28;45428;-69
2022/09/05 05:26:32;;;;;;;;;5.50;4.75;;;;;23.00;42.86;101192.19;4963600;28;46157;-70
2022/09/05 05:29:08;;;;;;;;;4.25;4.00;;;;;22.94;42.84;101188.06;4933226;28;45356;-66
2022/09/05 05:31:44;;;;;;;;;41.50;34.50;;;;;22.93;42.92;101183.66;4956572;28;45431;-67
2022/09/05 05:34:20;;;;;;;;;12.25;12.00;;;;;22.95;43.18;101192.47;4944045;28;45451;-67
2022/09/05 05:37:30;;;;;;;;;11.75;10.00;;;;;22.95;42.96;101183.56;4944724;28;45324;-66
2022/09/05 05:40:05;;;;;;;;;9.00;8.00;;;;;22.94;42.95;101188.06;4950231;28;45653;-64
2022/09/05 05:42:32;;;;;;;;;11.00;8.00;;;;;22.95;43.33;101179.06;4957767;28;46344;-64
2022/09/05 05:44:58;;;;;;;;;7.00;7.00;;;;;22.94;43.18;101176.47;4954455;28;45462;-68
2022/09/05 05:47:40;;;;;;;;;8.00;8.00;;;;;22.97;43.11;101190.56;4945287;28;45185;-67
2022/09/05 05:50:11;;;;;;;;;4.75;4.75;;;;;22.97;43.22;101197.75;4955379;28;45322;-67
2022/09/05 05:53:15;;;;;;;;;7.50;6.00;;;;;22.98;43.01;101200.34;4943498;28;45316;-67
2022/09/05 05:56:00;;;;;;;;;60.75;47.25;;;;;22.97;43.60;101217.38;4948935;28;45461;-68
2022/09/05 05:58:56;;;;;;;;;10.25;10.25;;;;;22.97;43.49;101222.72;4959247;28;45466;-68
2022/09/05 06:01:48;;;;;;;;;13.25;8.75;;;;;22.98;43.66;101226.25;4952870;28;45582;-69
2022/09/05 06:04:22;;;;;;;;;4.25;4.25;;;;;22.98;43.49;101229.81;4934698;28;45357;-68
2022/09/05 06:07:20;;;;;;;;;7.75;7.00;;;;;22.98;43.32;101228.94;4949104;28;45255;-67
2022/09/05 06:10:13;;;;;;;;;8.75;7.00;;;;;22.97;43.49;101230.75;4958128;28;45334;-66
2022/09/05 06:13:10;;;;;;;;;7.00;7.00;;;;;22.98;43.50;101234.28;4956387;28;45234;-66
2022/09/05 06:16:13;;;;;;;;;10.75;7.00;;;;;22.99;43.63;101233.34;4961021;28;47079;-65
2022/09/05 06:18:48;;;;;;;;;4.75;3.50;;;;;23.00;43.69;101227.88;4893444;29;45346;-63
2022/09/05 06:21:50;;;;;;;;;8.50;7.00;;;;;23.00;43.62;101235.91;4954323;28;45368;-64
2022/09/05 06:24:56;;;;;;;;;8.75;8.00;;;;;23.01;43.45;101226.94;4955802;28;45383;-65
2022/09/05 06:27:24;;;;;;;;;9.00;8.00;;;;;23.00;43.58;101227.03;4947128;28;47036;-64
2022/09/05 06:30:07;;;;;;;;;5.25;3.50;;;;;23.00;43.85;101235.91;4962569;28;45486;-64
2022/09/05 06:32:48;;;;;;;;;6.00;4.75;;;;;23.02;43.38;101239.38;4956902;28;45220;-65
2022/09/05 06:35:27;;;;;;;;;7.25;6.00;;;;;22.99;43.08;101244.94;4930177;28;45410;-67
2022/09/05 06:38:05;;;;;;;;;4.50;4.50;;;;;23.03;43.10;101251.84;4960407;28;47050;-65
2022/09/05 06:40:51;;;;;;;;;6.00;5.75;;;;;23.04;43.37;101258.94;4954934;28;45499;-60
2022/09/05 06:43:34;;;;;;;;;5.50;4.50;;;;;23.05;43.32;101260.63;4961128;28;45276;-65
2022/09/05 06:46:15;;;;;;;;;7.00;6.00;;;;;23.06;43.22;101264.19;4957843;28;45164;-65
2022/09/05 06:49:16;;;;;;;;;5.00;5.00;;;;;23.03;43.59;101270.59;4956312;28;46683;-65
2022/09/05 06:52:18;;;;;;;;;6.75;6.75;;;;;23.07;43.54;101282.00;4948927;28;45324;-65
2022/09/05 06:55:00;;;;;;;;;5.50;5.25;;;;;23.05;43.78;101295.47;4956816;28;45168;-65
2022/09/05 06:58:10;;;;;;;;;6.75;6.75;;;;;22.99;43.69;101289.63;4954755;28;45510;-65
2022/09/05 07:00:50;;;;;;;;;7.75;6.25;;;;;23.04;43.69;101317.88;4943576;28;47619;-65
2022/09/05 07:03:41;;;;;;;;;9.25;7.50;;;;;23.09;44.11;101328.31;4948693;28;45455;-65
2022/09/05 07:06:37;;;;;;;;;14.00;12.75;;;;;23.10;43.67;101334.56;4948232;28;45185;-65
2022/09/05 07:09:15;;;;;;;;;7.25;7.25;;;;;23.09;43.94;101340.88;4949123;28;45493;-65
2022/09/05 07:12:12;;;;;;;;;7.00;6.75;;;;;23.08;44.15;101317.69;4961535;28;46215;-66
2022/09/05 07:14:58;;;;;;;;;7.50;5.00;;;;;23.12;44.51;101316.56;4955035;28;45263;-65
2022/09/05 07:17:40;;;;;;;;;7.00;6.75;;;;;23.16;44.40;101313.66;4960810;28;45470;-64
2022/09/05 07:20:29;;;;;;;;;7.00;7.00;;;;;23.18;44.46;101333.22;4955295;28;45528;-65
2022/09/05 07:23:06;;;;;;;;;6.25;6.25;;;;;23.24;44.63;101344.53;4955610;28;47184;-66
2022/09/05 07:25:32;;;;;;;;;5.00;5.00;;;;;23.25;44.73;101327.50;4956184;28;45878;-66
2022/09/05 07:27:59;;;;;;;;;6.00;5.50;;;;;23.31;44.57;101333.34;4960830;28;45437;-66
2022/09/05 07:30:25;;;;;;;;;6.50;5.25;;;;;23.34;44.44;101325.09;4950029;28;45363;-66
2022/09/05 07:32:54;;;;;;;;;8.25;8.25;;;;;23.37;44.54;101327.63;4957573;28;45347;-65
2022/09/05 07:35:23;;;;;;;;;6.50;5.00;;;;;23.40;44.60;101329.25;4943902;28;45374;-68
2022/09/05 07:37:55;;;;;;;;;5.00;5.00;;;;;23.46;44.64;101322.66;4957402;28;45324;-65
2022/09/05 07:40:22;;;;;;;;;6.00;5.75;;;;;23.50;44.83;101329.59;4957569;28;45225;-67
2022/09/05 07:43:00;;;;;;;;;7.00;6.00;;;;;23.53;44.70;101329.38;4936805;28;47034;-67
2022/09/05 07:45:28;;;;;;;;;8.50;8.00;;;;;23.60;44.77;101328.06;4953020;28;45434;-67
2022/09/05 07:48:10;;;;;;;;;5.50;4.00;;;;;23.66;44.73;101311.59;4951735;28;45244;-67
2022/09/05 07:50:52;;;;;;;;;6.75;6.00;;;;;23.69;44.64;101314.09;4957412;28;45325;-67
2022/09/05 07:53:19;;;;;;;;;7.00;7.00;;;;;23.76;44.55;101309.22;4960774;28;45685;-67
2022/09/05 07:55:52;;;;;;;;;6.00;6.00;;;;;23.79;44.49;101300.97;4957058;28;45448;-66
2022/09/05 07:58:20;;;;;;;;;6.25;5.00;;;;;23.87;44.22;101297.81;4960895;28;45408;-67
2022/09/05 08:00:57;;;;;;;;;7.00;7.00;;;;;23.92;44.34;101301.13;4960549;28;45516;-66
2022/09/05 08:03:26;;;;;;;;;5.00;4.00;;;;;23.95;44.18;101298.25;4960479;28;45714;-67
2022/09/05 08:05:54;;;;;;;;;8.50;8.50;;;;;24.02;44.14;101306.78;4960922;28;45511;-67
2022/09/05 08:08:26;;;;;;;;;7.00;6.00;;;;;24.06;43.98;101294.88;4960735;28;45278;-68
2022/09/05 08:10:55;;;;;;;;;5.25;5.25;;;;;24.15;43.86;101298.81;4960936;28;45498;-68
2022/09/05 08:13:42;;;;;;;;;6.25;5.75;;;;;24.19;44.00;101297.69;4954155;28;45353;-67
2022/09/05 08:16:12;;;;;;;;;6.00;5.50;;;;;24.26;43.92;101288.25;4954047;28;45200;-67
2022/09/05 08:18:46;;;;;;;;;5.75;5.75;;;;;24.34;44.04;101288.66;4953002;28;45267;-67
2022/09/05 08:21:40;;;;;;;;;7.00;7.00;;;;;24.44;43.69;101293.41;4960162;28;45419;-67
2022/09/05 08:24:23;;;;;;;;;8.50;7.00;;;;;24.53;43.77;101292.84;4956109;28;45412;-67
2022/09/05 08:26:58;;;;;;;;;4.25;4.25;;;;;24.65;43.74;101288.53;4941291;28;45241;-68
2022/09/05 08:29:31;;;;;;;;;6.25;6.00;;;;;24.73;43.92;101282.66;4943733;28;45223;-65
2022/09/05 08:32:12;;;;;;;;;6.00;6.00;;;;;24.86;43.73;101285.41;4957782;28;45536;-70
2022/09/05 08:34:42;;;;;;;;;6.00;6.00;;;;;24.97;43.34;101286.41;4941293;28;45468;-67
2022/09/05 08:37:11;;;;;;;;;7.00;7.00;;;;;25.07;43.62;101289.34;4940595;28;45275;-67
2022/09/05 08:39:39;;;;;;;;;7.75;6.25;;;;;25.17;43.27;101286.03;4943902;28;45204;-67
2022/09/05 08:42:26;;;;;;;;;6.00;5.25;;;;;25.26;43.07;101291.66;4944500;28;45512;-67
2022/09/05 08:45:22;;;;;;;;;4.50;4.50;;;;;25.37;43.01;101293.66;4943697;28;45979;-66
2022/09/05 08:47:58;;;;;;;;;9.25;7.25;;;;;25.47;42.82;101285.78;4944673;28;45264;-66
2022/09/05 08:50:37;;;;;;;;;6.25;6.00;;;;;25.59;42.98;101289.47;4950968;28;45288;-67
2022/09/05 08:53:27;;;;;;;;;7.00;7.00;;;;;25.70;43.14;101288.72;4944187;28;45344;-66
2022/09/05 08:56:14;;;;;;;;;5.25;5.25;;;;;25.84;42.99;101290.47;4954654;28;46109;-67
2022/09/05 08:58:51;;;;;;;;;8.00;5.00;;;;;25.98;42.62;101281.41;4945588;28;45292;-67
2022/09/05 09:01:29;;;;;;;;;6.25;6.00;;;;;26.09;42.44;101279.69;4944171;28;45444;-67
2022/09/05 09:04:15;;;;;;;;;7.25;6.75;;;;;26.25;42.86;101281.28;4952230;28;45339;-67
2022/09/05 09:07:02;;;;;;;;;5.75;5.25;;;;;26.41;43.04;101289.13;4945019;28;45458;-67
2022/09/05 09:09:42;;;;;;;;;6.50;6.00;;;;;26.57;42.82;101289.72;4943808;28;45308;-66
2022/09/05 09:12:15;;;;;;;;;7.00;6.00;;;;;26.73;42.24;101288.59;4944163;28;45350;-66
2022/09/05 09:15:06;;;;;;;;;6.00;5.00;;;;;26.89;42.43;101289.22;4943577;28;45487;-66
2022/09/05 09:17:44;;;;;;;;;6.50;6.25;;;;;27.06;42.04;101300.56;4943692;28;46123;-66
2022/09/05 09:20:32;;;;;;;;;5.00;5.00;;;;;27.20;41.80;101305.75;4943957;28;45249;-66
2022/09/05 09:23:10;;;;;;;;;9.25;7.00;;;;;27.30;42.05;101297.84;4962535;28;45449;-66
2022/09/05 09:25:51;;;;;;;;;6.25;6.25;;;;;27.45;41.67;101306.63;4951549;28;45251;-67
2022/09/05 09:28:53;;;;;;;;;7.50;5.50;;;;;27.62;41.48;101304.44;4943657;28;45288;-67
2022/09/05 09:31:37;;;;;;;;;7.00;6.25;;;;;27.72;40.92;101309.03;4955177;28;45249;-67
2022/09/05 09:34:21;;;;;;;;;4.75;4.75;;;;;27.82;40.81;101302.88;4926460;28;45511;-67
2022/09/05 09:37:23;;;;;;;;;4.25;4.00;;;;;27.96;41.08;101299.09;4943885;28;45689;-67
2022/09/05 09:39:51;;;;;;;;;4.50;4.50;;;;;28.06;40.32;101305.50;4953136;28;45486;-67
2022/09/05 09:42:25;;;;;;;;;4.00;4.00;;;;;28.13;39.99;101304.03;4946492;28;45425;-67
2022/09/05 09:45:08;;;;;;;;;4.50;4.00;;;;;28.19;40.22;101292.75;4943360;28;45329;-66
2022/09/05 09:48:04;;;;;;;;;6.00;6.00;;;;;28.21;39.81;101290.78;4943756;28;45279;-66
2022/09/05 09:50:38;;;;;;;;;4.00;3.00;;;;;28.26;39.48;101290.41;4945828;28;45300;-69
2022/09/05 09:53:23;;;;;;;;;5.50;5.00;;;;;28.30;39.63;101286.50;4943445;28;45384;-66
2022/09/05 09:56:27;;;;;;;;;3.00;3.00;;;;;28.35;39.52;101284.28;4953196;28;45319;-67
2022/09/05 09:59:16;;;;;;;;;4.75;3.75;;;;;28.38;38.89;101280.47;4943301;28;45418;-67
2022/09/05 10:02:10;;;;;;;;;4.00;4.00;;;;;28.43;38.81;101280.06;4943124;28;45431;-67
2022/09/05 10:05:13;;;;;;;;;2.25;2.25;;;;;28.46;38.42;101272.56;4942984;28;45395;-67
2022/09/05 10:08:12;;;;;;;;;2.25;2.25;;;;;28.49;38.38;101268.75;4925977;28;45285;-68
2022/09/05 10:11:02;;;;;;;;;2.25;2.25;;;;;28.52;38.41;101258.53;4943191;28;45742;-67
2022/09/05 10:13:46;;;;;;;;;2.25;2.25;;;;;28.58;38.05;101248.22;4943162;28;45356;-66
2022/09/05 10:16:11;;;;;;;;;3.25;2.00;;;;;28.63;37.89;101245.97;4925563;28;45572;-66
2022/09/05 10:18:59;;;;;;;;;2.25;1.25;;;;;28.70;37.69;101242.69;4943086;28;45237;-66
2022/09/05 10:21:43;;;;;;;;;3.50;3.50;;;;;28.82;37.84;101239.94;4942878;28;45455;-66
2022/09/05 10:24:30;;;;;;;;;3.50;2.75;;;;;28.92;37.79;101235.47;4963585;28;45440;-66
2022/09/05 10:27:11;;;;;;;;;3.75;3.75;;;;;28.99;37.76;101222.28;4942909;28;45478;-67
2022/09/05 10:29:42;;;;;;;;;2.75;2.00;;;;;29.11;37.29;101221.25;4948900;28;45478;-67
2022/09/05 10:32:24;;;;;;;;;5.00;3.00;;;;;29.33;37.25;101235.66;4964386;28;45473;-68
2022/09/05 10:34:58;;;;;;;;;2.25;2.25;;;;;29.46;36.86;101228.19;4925301;28;46854;-68
2022/09/05 10:37:41;;;;;;;;;5.75;4.00;;;;;29.61;36.95;101234.13;4942576;28;45401;-68
2022/09/05 10:40:12;;;;;;;;;3.25;3.00;;;;;29.73;36.69;101243.00;4942637;28;45316;-68
2022/09/05 10:42:45;;;;;;;;;10.00;7.25;;;;;29.86;37.00;101231.94;4955363;28;45241;-68
2022/09/05 10:45:20;;;;;;;;;5.00;2.00;;;;;30.02;36.29;101236.03;4941473;28;46198;-67
2022/09/05 10:48:08;;;;;;;;;4.00;3.00;;;;;30.17;36.49;101231.09;4925247;28;45432;-67
2022/09/05 10:50:42;;;;;;;;;3.50;3.25;;;;;30.30;35.96;101224.44;4945335;28;45217;-67
2022/09/05 10:53:15;;;;;;;;;3.00;3.00;;;;;30.54;36.08;101223.22;4942417;28;45270;-67
2022/09/05 10:56:12;;;;;;;;;1.50;1.50;;;;;30.79;35.83;101224.50;4951251;28;46713;-67
2022/09/05 10:58:43;;;;;;;;;3.75;3.00;;;;;31.11;36.44;101230.66;4942160;28;45269;-67
2022/09/05 11:01:40;;;;;;;;;1.50;1.25;;;;;31.45;36.66;101225.56;4924299;28;45339;-67
2022/09/05 11:04:44;;;;;;;;;3.50;3.00;;;;;31.81;35.71;101218.63;4941583;28;45301;-67
2022/09/05 11:07:47;;;;;;;;;2.75;2.75;;;;;32.16;36.29;101209.72;4942252;28;46365;-67
2022/09/05 11:10:24;;;;;;;;;4.00;4.00;;;;;32.57;36.04;101209.34;4942308;28;45276;-67
2022/09/05 11:13:23;;;;;;;;;4.50;3.25;;;;;33.01;36.17;101206.69;4942012;28;45427;-67
2022/09/05 11:15:56;;;;;;;;;2.00;2.00;;;;;33.42;35.58;101213.47;4941296;28;45316;-66
2022/09/05 11:18:55;;;;;;;;;2.50;2.00;;;;;33.82;35.16;101206.56;4941992;28;45348;-66
2022/09/05 11:21:50;;;;;;;;;2.75;2.50;;;;;34.29;35.06;101210.63;4941926;28;45269;-67
2022/09/05 11:24:46;;;;;;;;;1.25;1.25;;;;;34.75;34.76;101204.75;4957328;28;45351;-67
2022/09/05 11:27:32;;;;;;;;;4.00;3.25;;;;;35.22;34.69;101205.94;4942082;28;45241;-67
2022/09/05 11:30:05;;;;;;;;;2.00;2.00;;;;;35.57;33.94;101204.72;4952937;28;45705;-66
2022/09/05 11:32:43;;;;;;;;;3.00;3.00;;;;;35.87;33.56;101198.63;4950248;28;45258;-66
2022/09/05 11:35:23;;;;;;;;;2.00;2.00;;;;;36.10;33.14;101190.47;4942112;28;45484;-66
2022/09/05 11:37:57;;;;;;;;;3.00;1.00;;;;;36.30;33.20;101195.50;4941979;28;45472;-67
2022/09/05 11:40:41;;;;;;;;;3.00;3.00;;;;;36.47;32.32;101194.38;4924391;28;47249;-67
2022/09/05 11:43:45;;;;;;;;;1.50;1.50;;;;;36.62;31.86;101191.72;4941860;28;45325;-64
2022/09/05 11:46:54;;;;;;;;;1.75;1.75;;;;;36.68;31.22;101190.09;4949871;28;45275;-64
2022/09/05 11:49:31;;;;;;;;;2.50;2.50;;;;;36.72;31.39;101186.00;4933588;28;45333;-66
2022/09/05 11:52:39;;;;;;;;;3.50;3.50;;;;;36.82;31.37;101181.09;4948210;28;46325;-66
2022/09/05 11:55:29;;;;;;;;;2.75;1.50;;;;;37.00;31.04;101188.16;4918113;28;45580;-66
2022/09/05 11:58:02;;;;;;;;;1.50;1.50;;;;;37.18;30.75;101180.44;4941910;28;45276;-66
2022/09/05 12:00:40;;;;;;;;;1.75;1.75;;;;;37.44;31.49;101176.41;4941422;28;45589;-65
2022/09/05 12:03:23;;;;;;;;;3.00;3.00;;;;;37.75;30.98;101180.84;4941431;28;45286;-65
2022/09/05 12:06:10;;;;;;;;;2.00;2.00;;;;;38.12;31.31;101175.41;4941436;28;45261;-65
2022/09/05 12:09:09;;;;;;;;;1.50;0.75;;;;;38.58;31.06;101168.69;4948212;28;45238;-65
2022/09/05 12:11:53;;;;;;;;;2.00;2.00;;;;;39.07;31.12;101165.13;4943166;28;45357;-65
2022/09/05 12:14:45;;;;;;;;;1.50;1.50;;;;;39.55;31.05;101169.00;4939568;28;46683;-65
2022/09/05 12:17:42;;;;;;;;;1.50;1.50;;;;;40.09;30.96;101157.19;4941467;28;45371;-63
2022/09/05 12:20:21;;;;;;;;;2.00;2.00;;;;;40.67;30.41;101150.31;4948452;28;45485;-63
2022/09/05 12:22:56;;;;;;;;;4.00;4.00;;;;;41.20;30.47;101151.34;4960703;28;45559;-66
2022/09/05 12:25:39;;;;;;;;;2.00;2.00;;;;;41.70;30.26;101143.34;4959445;28;46244;-64
2022/09/05 12:28:12;;;;;;;;;1.75;1.75;;;;;42.18;29.79;101147.53;4941776;28;45316;-64
2022/09/05 12:30:41;;;;;;;;;0.75;0.25;;;;;42.66;29.93;101137.00;4935642;28;45439;-64
2022/09/05 12:33:25;;;;;;;;;3.75;3.00;;;;;43.13;29.19;101142.09;4941204;28;45420;-64
2022/09/05 12:36:02;;;;;;;;;3.75;3.75;;;;;43.58;28.95;101133.50;4941256;28;46599;-66